sensor_id;sensor_type;location;lat;lon;timestamp;P1;durP1;ratioP1;P2;durP2;ratioP2
75554;SDS011;66087;53.126;17.960;2023-08-21T00:00:38;13.50;;;9.70;;
75554;SDS011;66087;53.126;17.960;2023-08-21T00:03:24;13.80;;;9.60;;
75554;SDS011;66087;53.126;17.960;2023-08-21T00:05:50;14.30;;;8.70;;
75554;SDS011;66087;53.126;17.960;2023-08-21T00:08:17;12.60;;;8.80;;
75554;SDS011;66087;53.126;17.960;2023-08-21T00:10:53;13.90;;;8.90;;
75554;SDS011;66087;53.126;17.960;2023-08-21T00:13:21;14.30;;;10.00;;
75554;SDS011;66087;53.126;17.960;2023-08-21T00:15:50;12.50;;;9.10;;
75554;SDS011;66087;53.126;17.960;2023-08-21T00:18:16;14.90;;;10.30;;
75554;SDS011;66087;53.126;17.960;2023-08-21T00:20:47;11.70;;;8.10;;
75554;SDS011;66087;53.126;17.960;2023-08-21T00:23:22;12.40;;;8.50;;
75554;SDS011;66087;53.126;17.960;2023-08-21T00:25:48;12.30;;;8.90;;
75554;SDS011;66087;53.126;17.960;2023-08-21T00:28:15;12.20;;;8.60;;
75554;SDS011;66087;53.126;17.960;2023-08-21T00:30:43;12.10;;;8.00;;
75554;SDS011;66087;53.126;17.960;2023-08-21T00:33:09;11.30;;;7.60;;
75554;SDS011;66087;53.126;17.960;2023-08-21T00:35:35;11.90;;;8.20;;
75554;SDS011;66087;53.126;17.960;2023-08-21T00:38:03;10.40;;;7.30;;
75554;SDS011;66087;53.126;17.960;2023-08-21T00:40:31;11.60;;;7.90;;
75554;SDS011;66087;53.126;17.960;2023-08-21T00:42:59;13.40;;;8.40;;
75554;SDS011;66087;53.126;17.960;2023-08-21T00:45:26;12.70;;;8.30;;
75554;SDS011;66087;53.126;17.960;2023-08-21T00:47:52;10.60;;;7.60;;
75554;SDS011;66087;53.126;17.960;2023-08-21T00:50:19;11.30;;;7.80;;
75554;SDS011;66087;53.126;17.960;2023-08-21T00:52:46;12.00;;;8.30;;
75554;SDS011;66087;53.126;17.960;2023-08-21T00:55:19;12.50;;;8.20;;
75554;SDS011;66087;53.126;17.960;2023-08-21T00:57:45;12.60;;;7.90;;
75554;SDS011;66087;53.126;17.960;2023-08-21T01:00:17;12.90;;;7.60;;
75554;SDS011;66087;53.126;17.960;2023-08-21T01:02:43;13.30;;;7.60;;
75554;SDS011;66087;53.126;17.960;2023-08-21T01:05:09;13.50;;;8.40;;
75554;SDS011;66087;53.126;17.960;2023-08-21T01:07:36;12.20;;;7.70;;
75554;SDS011;66087;53.126;17.960;2023-08-21T01:16:02;12.10;;;7.10;;
75554;SDS011;66087;53.126;17.960;2023-08-21T01:18:30;12.10;;;8.50;;
75554;SDS011;66087;53.126;17.960;2023-08-21T01:21:08;11.90;;;8.00;;
75554;SDS011;66087;53.126;17.960;2023-08-21T01:23:35;11.40;;;7.80;;
75554;SDS011;66087;53.126;17.960;2023-08-21T01:26:02;12.10;;;8.00;;
75554;SDS011;66087;53.126;17.960;2023-08-21T01:28:30;13.40;;;9.20;;
75554;SDS011;66087;53.126;17.960;2023-08-21T01:31:07;12.90;;;8.20;;
75554;SDS011;66087;53.126;17.960;2023-08-21T01:33:45;13.30;;;8.20;;
75554;SDS011;66087;53.126;17.960;2023-08-21T01:36:14;12.00;;;8.00;;
75554;SDS011;66087;53.126;17.960;2023-08-21T01:38:41;12.70;;;7.10;;
75554;SDS011;66087;53.126;17.960;2023-08-21T01:41:11;11.20;;;7.40;;
75554;SDS011;66087;53.126;17.960;2023-08-21T01:43:38;12.00;;;7.90;;
75554;SDS011;66087;53.126;17.960;2023-08-21T01:46:04;11.00;;;7.60;;
75554;SDS011;66087;53.126;17.960;2023-08-21T01:48:32;12.30;;;8.60;;
75554;SDS011;66087;53.126;17.960;2023-08-21T01:51:00;12.80;;;8.50;;
75554;SDS011;66087;53.126;17.960;2023-08-21T01:53:29;11.10;;;7.70;;
75554;SDS011;66087;53.126;17.960;2023-08-21T01:55:55;12.70;;;8.00;;
75554;SDS011;66087;53.126;17.960;2023-08-21T01:58:21;12.90;;;7.90;;
75554;SDS011;66087;53.126;17.960;2023-08-21T02:00:47;13.50;;;8.10;;
75554;SDS011;66087;53.126;17.960;2023-08-21T02:03:31;12.90;;;7.70;;
75554;SDS011;66087;53.126;17.960;2023-08-21T02:05:58;13.50;;;8.90;;
75554;SDS011;66087;53.126;17.960;2023-08-21T02:08:25;11.90;;;8.40;;
75554;SDS011;66087;53.126;17.960;2023-08-21T02:11:00;12.50;;;8.50;;
75554;SDS011;66087;53.126;17.960;2023-08-21T02:13:26;11.00;;;7.40;;
75554;SDS011;66087;53.126;17.960;2023-08-21T02:15:52;11.80;;;7.30;;
75554;SDS011;66087;53.126;17.960;2023-08-21T02:18:20;12.80;;;7.80;;
75554;SDS011;66087;53.126;17.960;2023-08-21T02:20:55;13.50;;;7.40;;
75554;SDS011;66087;53.126;17.960;2023-08-21T02:23:21;11.80;;;7.10;;
75554;SDS011;66087;53.126;17.960;2023-08-21T02:25:47;12.60;;;7.10;;
75554;SDS011;66087;53.126;17.960;2023-08-21T02:28:16;12.30;;;7.70;;
75554;SDS011;66087;53.126;17.960;2023-08-21T02:30:42;11.40;;;7.20;;
75554;SDS011;66087;53.126;17.960;2023-08-21T02:33:13;15.40;;;8.50;;
75554;SDS011;66087;53.126;17.960;2023-08-21T02:35:39;12.40;;;7.70;;
75554;SDS011;66087;53.126;17.960;2023-08-21T02:38:05;10.50;;;6.80;;
75554;SDS011;66087;53.126;17.960;2023-08-21T02:40:35;12.10;;;7.70;;
75554;SDS011;66087;53.126;17.960;2023-08-21T02:43:04;12.10;;;6.40;;
75554;SDS011;66087;53.126;17.960;2023-08-21T02:45:35;12.80;;;8.40;;
75554;SDS011;66087;53.126;17.960;2023-08-21T02:48:01;12.00;;;7.00;;
75554;SDS011;66087;53.126;17.960;2023-08-21T02:50:30;10.20;;;6.20;;
75554;SDS011;66087;53.126;17.960;2023-08-21T02:53:15;10.40;;;6.10;;
75554;SDS011;66087;53.126;17.960;2023-08-21T02:55:41;13.60;;;6.90;;
75554;SDS011;66087;53.126;17.960;2023-08-21T02:58:12;11.70;;;6.70;;
75554;SDS011;66087;53.126;17.960;2023-08-21T03:00:38;13.00;;;7.00;;
75554;SDS011;66087;53.126;17.960;2023-08-21T03:03:04;11.50;;;6.60;;
75554;SDS011;66087;53.126;17.960;2023-08-21T03:05:37;11.50;;;6.90;;
75554;SDS011;66087;53.126;17.960;2023-08-21T03:08:04;14.30;;;7.20;;
75554;SDS011;66087;53.126;17.960;2023-08-21T03:10:54;11.10;;;6.40;;
75554;SDS011;66087;53.126;17.960;2023-08-21T03:13:20;12.20;;;6.60;;
75554;SDS011;66087;53.126;17.960;2023-08-21T03:15:46;12.30;;;7.00;;
75554;SDS011;66087;53.126;17.960;2023-08-21T03:18:18;12.30;;;6.60;;
75554;SDS011;66087;53.126;17.960;2023-08-21T03:20:44;12.50;;;6.50;;
75554;SDS011;66087;53.126;17.960;2023-08-21T03:23:13;10.60;;;6.80;;
75554;SDS011;66087;53.126;17.960;2023-08-21T03:25:40;11.90;;;7.00;;
75554;SDS011;66087;53.126;17.960;2023-08-21T03:28:07;11.40;;;6.70;;
75554;SDS011;66087;53.126;17.960;2023-08-21T03:30:33;13.10;;;7.30;;
75554;SDS011;66087;53.126;17.960;2023-08-21T03:33:00;12.90;;;6.70;;
75554;SDS011;66087;53.126;17.960;2023-08-21T03:35:26;11.80;;;6.60;;
75554;SDS011;66087;53.126;17.960;2023-08-21T03:37:53;10.90;;;6.80;;
75554;SDS011;66087;53.126;17.960;2023-08-21T03:40:19;9.70;;;5.40;;
75554;SDS011;66087;53.126;17.960;2023-08-21T03:42:46;10.20;;;6.20;;
75554;SDS011;66087;53.126;17.960;2023-08-21T03:45:20;14.30;;;5.80;;
75554;SDS011;66087;53.126;17.960;2023-08-21T03:47:46;11.00;;;6.50;;
75554;SDS011;66087;53.126;17.960;2023-08-21T03:50:34;11.30;;;6.30;;
75554;SDS011;66087;53.126;17.960;2023-08-21T03:53:00;9.00;;;4.90;;
75554;SDS011;66087;53.126;17.960;2023-08-21T03:55:25;11.30;;;4.90;;
75554;SDS011;66087;53.126;17.960;2023-08-21T03:57:53;9.00;;;5.10;;
75554;SDS011;66087;53.126;17.960;2023-08-21T04:00:20;8.80;;;4.90;;
75554;SDS011;66087;53.126;17.960;2023-08-21T04:02:47;10.90;;;5.10;;
75554;SDS011;66087;53.126;17.960;2023-08-21T04:05:17;9.70;;;5.70;;
75554;SDS011;66087;53.126;17.960;2023-08-21T04:07:44;10.60;;;5.40;;
75554;SDS011;66087;53.126;17.960;2023-08-21T04:10:10;10.00;;;5.90;;
75554;SDS011;66087;53.126;17.960;2023-08-21T04:12:38;10.80;;;5.40;;
75554;SDS011;66087;53.126;17.960;2023-08-21T04:15:09;9.80;;;5.20;;
75554;SDS011;66087;53.126;17.960;2023-08-21T04:17:35;9.40;;;6.10;;
75554;SDS011;66087;53.126;17.960;2023-08-21T04:20:01;10.40;;;5.90;;
75554;SDS011;66087;53.126;17.960;2023-08-21T04:22:27;10.20;;;5.60;;
75554;SDS011;66087;53.126;17.960;2023-08-21T04:25:01;9.70;;;5.70;;
75554;SDS011;66087;53.126;17.960;2023-08-21T04:27:27;10.70;;;5.60;;
75554;SDS011;66087;53.126;17.960;2023-08-21T04:30:03;10.60;;;5.70;;
75554;SDS011;66087;53.126;17.960;2023-08-21T04:32:30;8.80;;;5.10;;
75554;SDS011;66087;53.126;17.960;2023-08-21T04:34:57;9.90;;;6.00;;
75554;SDS011;66087;53.126;17.960;2023-08-21T04:37:23;10.50;;;5.20;;
75554;SDS011;66087;53.126;17.960;2023-08-21T04:39:50;7.90;;;4.70;;
75554;SDS011;66087;53.126;17.960;2023-08-21T04:42:17;7.90;;;4.40;;
75554;SDS011;66087;53.126;17.960;2023-08-21T04:44:46;8.10;;;4.30;;
75554;SDS011;66087;53.126;17.960;2023-08-21T04:49:55;8.20;;;4.70;;
75554;SDS011;66087;53.126;17.960;2023-08-21T04:52:22;10.10;;;5.40;;
75554;SDS011;66087;53.126;17.960;2023-08-21T04:54:50;9.10;;;4.60;;
75554;SDS011;66087;53.126;17.960;2023-08-21T04:57:19;8.80;;;4.30;;
75554;SDS011;66087;53.126;17.960;2023-08-21T04:59:47;9.40;;;5.20;;
75554;SDS011;66087;53.126;17.960;2023-08-21T05:02:16;9.60;;;4.70;;
75554;SDS011;66087;53.126;17.960;2023-08-21T05:04:42;9.40;;;4.90;;
75554;SDS011;66087;53.126;17.960;2023-08-21T05:07:10;10.40;;;4.80;;
75554;SDS011;66087;53.126;17.960;2023-08-21T05:09:42;8.80;;;5.10;;
75554;SDS011;66087;53.126;17.960;2023-08-21T05:12:08;9.20;;;4.30;;
75554;SDS011;66087;53.126;17.960;2023-08-21T05:14:34;10.50;;;6.10;;
75554;SDS011;66087;53.126;17.960;2023-08-21T05:17:00;9.20;;;4.90;;
75554;SDS011;66087;53.126;17.960;2023-08-21T05:19:29;10.10;;;5.40;;
75554;SDS011;66087;53.126;17.960;2023-08-21T05:21:56;10.20;;;5.60;;
75554;SDS011;66087;53.126;17.960;2023-08-21T05:24:27;11.60;;;5.30;;
75554;SDS011;66087;53.126;17.960;2023-08-21T05:27:02;9.20;;;5.00;;
75554;SDS011;66087;53.126;17.960;2023-08-21T05:29:33;8.10;;;4.40;;
75554;SDS011;66087;53.126;17.960;2023-08-21T05:32:15;9.30;;;5.40;;
75554;SDS011;66087;53.126;17.960;2023-08-21T05:34:41;9.40;;;5.20;;
75554;SDS011;66087;53.126;17.960;2023-08-21T05:37:07;9.40;;;5.00;;
75554;SDS011;66087;53.126;17.960;2023-08-21T05:39:33;10.90;;;5.20;;
75554;SDS011;66087;53.126;17.960;2023-08-21T05:42:15;8.30;;;5.30;;
75554;SDS011;66087;53.126;17.960;2023-08-21T05:44:42;9.50;;;5.20;;
75554;SDS011;66087;53.126;17.960;2023-08-21T05:47:08;9.10;;;5.20;;
75554;SDS011;66087;53.126;17.960;2023-08-21T05:49:34;11.40;;;5.30;;
75554;SDS011;66087;53.126;17.960;2023-08-21T05:52:06;9.50;;;4.90;;
75554;SDS011;66087;53.126;17.960;2023-08-21T05:54:32;10.20;;;5.10;;
75554;SDS011;66087;53.126;17.960;2023-08-21T05:57:03;10.40;;;5.00;;
75554;SDS011;66087;53.126;17.960;2023-08-21T05:59:32;10.70;;;4.90;;
75554;SDS011;66087;53.126;17.960;2023-08-21T06:02:12;9.20;;;4.70;;
75554;SDS011;66087;53.126;17.960;2023-08-21T06:04:39;8.90;;;5.00;;
75554;SDS011;66087;53.126;17.960;2023-08-21T06:07:07;12.20;;;6.00;;
75554;SDS011;66087;53.126;17.960;2023-08-21T06:09:45;7.70;;;5.10;;
75554;SDS011;66087;53.126;17.960;2023-08-21T06:12:11;9.70;;;4.70;;
75554;SDS011;66087;53.126;17.960;2023-08-21T06:14:40;8.00;;;4.20;;
75554;SDS011;66087;53.126;17.960;2023-08-21T06:17:07;7.90;;;4.10;;
75554;SDS011;66087;53.126;17.960;2023-08-21T06:19:35;6.10;;;3.70;;
75554;SDS011;66087;53.126;17.960;2023-08-21T06:22:06;8.40;;;3.70;;
75554;SDS011;66087;53.126;17.960;2023-08-21T06:24:45;8.60;;;4.50;;
75554;SDS011;66087;53.126;17.960;2023-08-21T06:27:14;7.90;;;4.20;;
75554;SDS011;66087;53.126;17.960;2023-08-21T06:29:42;9.30;;;4.10;;
75554;SDS011;66087;53.126;17.960;2023-08-21T06:32:08;8.40;;;4.10;;
75554;SDS011;66087;53.126;17.960;2023-08-21T06:34:34;8.90;;;3.40;;
75554;SDS011;66087;53.126;17.960;2023-08-21T06:37:00;7.20;;;2.90;;
75554;SDS011;66087;53.126;17.960;2023-08-21T06:39:26;6.90;;;3.00;;
75554;SDS011;66087;53.126;17.960;2023-08-21T06:41:53;6.60;;;3.10;;
75554;SDS011;66087;53.126;17.960;2023-08-21T06:44:20;5.90;;;2.90;;
75554;SDS011;66087;53.126;17.960;2023-08-21T06:46:47;6.80;;;3.00;;
75554;SDS011;66087;53.126;17.960;2023-08-21T06:49:13;6.20;;;3.00;;
75554;SDS011;66087;53.126;17.960;2023-08-21T06:51:39;7.30;;;2.60;;
75554;SDS011;66087;53.126;17.960;2023-08-21T06:54:05;5.40;;;3.00;;
75554;SDS011;66087;53.126;17.960;2023-08-21T06:56:31;5.90;;;2.30;;
75554;SDS011;66087;53.126;17.960;2023-08-21T06:59:10;4.60;;;2.70;;
75554;SDS011;66087;53.126;17.960;2023-08-21T07:01:40;5.20;;;2.20;;
75554;SDS011;66087;53.126;17.960;2023-08-21T07:04:06;6.80;;;2.30;;
75554;SDS011;66087;53.126;17.960;2023-08-21T07:06:32;6.30;;;2.60;;
75554;SDS011;66087;53.126;17.960;2023-08-21T07:08:59;4.90;;;2.30;;
75554;SDS011;66087;53.126;17.960;2023-08-21T07:11:33;5.70;;;2.40;;
75554;SDS011;66087;53.126;17.960;2023-08-21T07:13:59;5.50;;;2.40;;
75554;SDS011;66087;53.126;17.960;2023-08-21T07:16:25;6.10;;;2.20;;
75554;SDS011;66087;53.126;17.960;2023-08-21T07:18:52;5.40;;;2.80;;
75554;SDS011;66087;53.126;17.960;2023-08-21T07:21:20;5.10;;;2.10;;
75554;SDS011;66087;53.126;17.960;2023-08-21T07:23:46;5.90;;;2.50;;
75554;SDS011;66087;53.126;17.960;2023-08-21T07:26:15;5.90;;;2.10;;
75554;SDS011;66087;53.126;17.960;2023-08-21T07:28:41;4.90;;;2.10;;
75554;SDS011;66087;53.126;17.960;2023-08-21T07:31:07;6.60;;;3.10;;
75554;SDS011;66087;53.126;17.960;2023-08-21T07:33:33;6.70;;;3.00;;
75554;SDS011;66087;53.126;17.960;2023-08-21T07:36:00;7.10;;;2.40;;
75554;SDS011;66087;53.126;17.960;2023-08-21T07:38:29;5.20;;;2.30;;
75554;SDS011;66087;53.126;17.960;2023-08-21T07:41:03;5.90;;;2.60;;
75554;SDS011;66087;53.126;17.960;2023-08-21T07:43:41;5.80;;;2.70;;
75554;SDS011;66087;53.126;17.960;2023-08-21T07:46:10;6.20;;;2.20;;
75554;SDS011;66087;53.126;17.960;2023-08-21T07:48:44;5.70;;;2.30;;
75554;SDS011;66087;53.126;17.960;2023-08-21T07:51:11;7.60;;;2.50;;
75554;SDS011;66087;53.126;17.960;2023-08-21T07:53:38;5.10;;;2.30;;
75554;SDS011;66087;53.126;17.960;2023-08-21T07:56:05;5.30;;;2.50;;
75554;SDS011;66087;53.126;17.960;2023-08-21T07:58:37;4.20;;;2.20;;
75554;SDS011;66087;53.126;17.960;2023-08-21T08:01:03;4.70;;;2.00;;
75554;SDS011;66087;53.126;17.960;2023-08-21T08:03:33;5.10;;;2.10;;
75554;SDS011;66087;53.126;17.960;2023-08-21T08:05:59;4.00;;;2.00;;
75554;SDS011;66087;53.126;17.960;2023-08-21T08:08:26;4.30;;;1.90;;
75554;SDS011;66087;53.126;17.960;2023-08-21T08:10:52;6.20;;;2.70;;
75554;SDS011;66087;53.126;17.960;2023-08-21T08:13:19;4.90;;;2.00;;
75554;SDS011;66087;53.126;17.960;2023-08-21T08:15:45;6.80;;;2.80;;
75554;SDS011;66087;53.126;17.960;2023-08-21T08:18:11;4.90;;;2.00;;
75554;SDS011;66087;53.126;17.960;2023-08-21T08:20:38;3.60;;;2.20;;
75554;SDS011;66087;53.126;17.960;2023-08-21T08:23:08;4.30;;;1.60;;
75554;SDS011;66087;53.126;17.960;2023-08-21T08:25:34;4.80;;;1.80;;
75554;SDS011;66087;53.126;17.960;2023-08-21T08:28:00;5.80;;;1.80;;
75554;SDS011;66087;53.126;17.960;2023-08-21T08:30:26;4.60;;;1.60;;
75554;SDS011;66087;53.126;17.960;2023-08-21T08:32:52;4.10;;;1.80;;
75554;SDS011;66087;53.126;17.960;2023-08-21T08:35:19;4.80;;;1.70;;
75554;SDS011;66087;53.126;17.960;2023-08-21T08:37:45;4.60;;;2.10;;
75554;SDS011;66087;53.126;17.960;2023-08-21T08:40:11;7.10;;;2.10;;
75554;SDS011;66087;53.126;17.960;2023-08-21T08:42:37;5.80;;;2.50;;
75554;SDS011;66087;53.126;17.960;2023-08-21T08:45:05;4.70;;;1.90;;
75554;SDS011;66087;53.126;17.960;2023-08-21T08:47:32;5.20;;;2.10;;
75554;SDS011;66087;53.126;17.960;2023-08-21T08:50:01;4.10;;;1.80;;
75554;SDS011;66087;53.126;17.960;2023-08-21T08:52:30;3.00;;;1.30;;
75554;SDS011;66087;53.126;17.960;2023-08-21T08:55:00;5.70;;;1.50;;
75554;SDS011;66087;53.126;17.960;2023-08-21T08:57:28;4.20;;;2.00;;
75554;SDS011;66087;53.126;17.960;2023-08-21T08:59:54;5.00;;;1.80;;
75554;SDS011;66087;53.126;17.960;2023-08-21T09:02:20;4.20;;;2.00;;
75554;SDS011;66087;53.126;17.960;2023-08-21T09:04:45;4.60;;;1.80;;
75554;SDS011;66087;53.126;17.960;2023-08-21T09:07:12;4.60;;;1.40;;
75554;SDS011;66087;53.126;17.960;2023-08-21T09:09:38;4.60;;;2.00;;
75554;SDS011;66087;53.126;17.960;2023-08-21T09:12:09;3.80;;;2.00;;
75554;SDS011;66087;53.126;17.960;2023-08-21T09:14:37;4.50;;;1.40;;
75554;SDS011;66087;53.126;17.960;2023-08-21T09:17:06;6.80;;;1.90;;
75554;SDS011;66087;53.126;17.960;2023-08-21T09:19:36;7.00;;;2.10;;
75554;SDS011;66087;53.126;17.960;2023-08-21T09:22:11;4.90;;;1.80;;
75554;SDS011;66087;53.126;17.960;2023-08-21T09:24:39;4.50;;;1.50;;
75554;SDS011;66087;53.126;17.960;2023-08-21T09:27:13;5.00;;;1.50;;
75554;SDS011;66087;53.126;17.960;2023-08-21T09:29:42;6.80;;;1.70;;
75554;SDS011;66087;53.126;17.960;2023-08-21T09:32:08;5.90;;;2.00;;
75554;SDS011;66087;53.126;17.960;2023-08-21T09:34:38;3.30;;;1.70;;
75554;SDS011;66087;53.126;17.960;2023-08-21T09:37:05;5.20;;;2.30;;
75554;SDS011;66087;53.126;17.960;2023-08-21T09:39:35;5.20;;;1.80;;
75554;SDS011;66087;53.126;17.960;2023-08-21T09:42:05;4.80;;;2.20;;
75554;SDS011;66087;53.126;17.960;2023-08-21T09:44:39;4.50;;;1.70;;
75554;SDS011;66087;53.126;17.960;2023-08-21T09:47:09;3.90;;;1.90;;
75554;SDS011;66087;53.126;17.960;2023-08-21T09:49:38;6.00;;;2.90;;
75554;SDS011;66087;53.126;17.960;2023-08-21T09:52:06;4.50;;;2.40;;
75554;SDS011;66087;53.126;17.960;2023-08-21T09:54:37;4.40;;;1.70;;
75554;SDS011;66087;53.126;17.960;2023-08-21T09:57:04;3.90;;;1.60;;
75554;SDS011;66087;53.126;17.960;2023-08-21T09:59:30;3.40;;;2.10;;
75554;SDS011;66087;53.126;17.960;2023-08-21T10:01:58;4.80;;;2.00;;
75554;SDS011;66087;53.126;17.960;2023-08-21T10:04:27;3.80;;;1.30;;
75554;SDS011;66087;53.126;17.960;2023-08-21T10:06:55;3.90;;;1.50;;
75554;SDS011;66087;53.126;17.960;2023-08-21T10:09:23;3.00;;;1.70;;
75554;SDS011;66087;53.126;17.960;2023-08-21T10:11:51;3.10;;;1.90;;
75554;SDS011;66087;53.126;17.960;2023-08-21T10:14:21;3.80;;;1.90;;
75554;SDS011;66087;53.126;17.960;2023-08-21T10:16:51;3.30;;;1.30;;
75554;SDS011;66087;53.126;17.960;2023-08-21T10:19:18;4.60;;;1.40;;
75554;SDS011;66087;53.126;17.960;2023-08-21T10:21:51;4.30;;;1.70;;
75554;SDS011;66087;53.126;17.960;2023-08-21T10:24:25;4.50;;;1.60;;
75554;SDS011;66087;53.126;17.960;2023-08-21T10:26:54;3.70;;;1.50;;
75554;SDS011;66087;53.126;17.960;2023-08-21T10:29:24;9.00;;;1.60;;
75554;SDS011;66087;53.126;17.960;2023-08-21T10:31:58;4.40;;;1.50;;
75554;SDS011;66087;53.126;17.960;2023-08-21T10:34:34;3.00;;;1.40;;
75554;SDS011;66087;53.126;17.960;2023-08-21T10:37:05;4.30;;;1.30;;
75554;SDS011;66087;53.126;17.960;2023-08-21T10:39:35;3.10;;;1.50;;
75554;SDS011;66087;53.126;17.960;2023-08-21T10:42:08;5.00;;;1.50;;
75554;SDS011;66087;53.126;17.960;2023-08-21T10:47:30;5.20;;;2.00;;
75554;SDS011;66087;53.126;17.960;2023-08-21T10:49:58;4.10;;;1.70;;
75554;SDS011;66087;53.126;17.960;2023-08-21T10:52:27;4.20;;;2.20;;
75554;SDS011;66087;53.126;17.960;2023-08-21T10:54:57;6.40;;;2.00;;
75554;SDS011;66087;53.126;17.960;2023-08-21T10:57:25;4.50;;;1.50;;
75554;SDS011;66087;53.126;17.960;2023-08-21T11:00:03;4.60;;;1.40;;
75554;SDS011;66087;53.126;17.960;2023-08-21T11:02:35;5.40;;;1.80;;
75554;SDS011;66087;53.126;17.960;2023-08-21T11:05:03;5.30;;;2.30;;
75554;SDS011;66087;53.126;17.960;2023-08-21T11:07:30;2.40;;;1.40;;
75554;SDS011;66087;53.126;17.960;2023-08-21T11:10:06;4.30;;;1.70;;
75554;SDS011;66087;53.126;17.960;2023-08-21T11:12:34;5.10;;;2.30;;
75554;SDS011;66087;53.126;17.960;2023-08-21T11:15:00;5.00;;;2.10;;
75554;SDS011;66087;53.126;17.960;2023-08-21T11:17:28;4.80;;;1.80;;
75554;SDS011;66087;53.126;17.960;2023-08-21T11:19:54;3.60;;;1.60;;
75554;SDS011;66087;53.126;17.960;2023-08-21T11:22:28;4.20;;;1.70;;
75554;SDS011;66087;53.126;17.960;2023-08-21T11:24:56;3.70;;;1.60;;
75554;SDS011;66087;53.126;17.960;2023-08-21T11:27:22;4.90;;;1.90;;
75554;SDS011;66087;53.126;17.960;2023-08-21T11:29:48;5.00;;;2.30;;
75554;SDS011;66087;53.126;17.960;2023-08-21T11:32:17;4.30;;;2.20;;
75554;SDS011;66087;53.126;17.960;2023-08-21T11:34:48;3.00;;;1.70;;
75554;SDS011;66087;53.126;17.960;2023-08-21T11:37:19;2.70;;;1.40;;
75554;SDS011;66087;53.126;17.960;2023-08-21T11:39:49;5.50;;;1.90;;
75554;SDS011;66087;53.126;17.960;2023-08-21T11:42:18;5.40;;;1.90;;
75554;SDS011;66087;53.126;17.960;2023-08-21T11:44:47;4.20;;;1.90;;
75554;SDS011;66087;53.126;17.960;2023-08-21T11:47:19;4.90;;;1.90;;
75554;SDS011;66087;53.126;17.960;2023-08-21T11:49:47;3.80;;;1.70;;
75554;SDS011;66087;53.126;17.960;2023-08-21T11:52:18;5.10;;;2.10;;
75554;SDS011;66087;53.126;17.960;2023-08-21T11:54:48;3.70;;;1.70;;
75554;SDS011;66087;53.126;17.960;2023-08-21T11:57:15;4.00;;;2.00;;
75554;SDS011;66087;53.126;17.960;2023-08-21T11:59:41;3.90;;;1.70;;
75554;SDS011;66087;53.126;17.960;2023-08-21T12:02:16;5.50;;;1.80;;
75554;SDS011;66087;53.126;17.960;2023-08-21T12:04:44;3.20;;;1.70;;
75554;SDS011;66087;53.126;17.960;2023-08-21T12:07:10;3.40;;;1.60;;
75554;SDS011;66087;53.126;17.960;2023-08-21T12:09:37;5.00;;;2.10;;
75554;SDS011;66087;53.126;17.960;2023-08-21T12:12:03;4.90;;;2.00;;
75554;SDS011;66087;53.126;17.960;2023-08-21T12:14:30;4.70;;;2.10;;
75554;SDS011;66087;53.126;17.960;2023-08-21T12:16:56;4.20;;;1.80;;
75554;SDS011;66087;53.126;17.960;2023-08-21T12:19:22;6.00;;;1.70;;
75554;SDS011;66087;53.126;17.960;2023-08-21T12:21:50;3.90;;;2.10;;
75554;SDS011;66087;53.126;17.960;2023-08-21T12:24:18;4.20;;;2.00;;
75554;SDS011;66087;53.126;17.960;2023-08-21T12:29:21;5.70;;;2.20;;
75554;SDS011;66087;53.126;17.960;2023-08-21T12:31:48;5.20;;;2.30;;
75554;SDS011;66087;53.126;17.960;2023-08-21T12:34:14;10.70;;;2.40;;
75554;SDS011;66087;53.126;17.960;2023-08-21T12:36:41;5.80;;;2.10;;
75554;SDS011;66087;53.126;17.960;2023-08-21T12:39:08;4.90;;;2.30;;
75554;SDS011;66087;53.126;17.960;2023-08-21T12:41:35;4.20;;;2.10;;
75554;SDS011;66087;53.126;17.960;2023-08-21T12:44:02;5.30;;;2.20;;
75554;SDS011;66087;53.126;17.960;2023-08-21T12:46:29;7.90;;;2.30;;
75554;SDS011;66087;53.126;17.960;2023-08-21T12:48:56;4.00;;;1.80;;
75554;SDS011;66087;53.126;17.960;2023-08-21T12:51:24;4.80;;;2.10;;
75554;SDS011;66087;53.126;17.960;2023-08-21T12:53:50;5.90;;;2.30;;
75554;SDS011;66087;53.126;17.960;2023-08-21T12:56:17;4.90;;;2.20;;
75554;SDS011;66087;53.126;17.960;2023-08-21T12:58:48;4.10;;;1.80;;
75554;SDS011;66087;53.126;17.960;2023-08-21T13:01:14;5.10;;;2.00;;
75554;SDS011;66087;53.126;17.960;2023-08-21T13:03:45;5.50;;;2.10;;
75554;SDS011;66087;53.126;17.960;2023-08-21T13:06:16;4.70;;;2.30;;
75554;SDS011;66087;53.126;17.960;2023-08-21T13:08:43;6.30;;;2.70;;
75554;SDS011;66087;53.126;17.960;2023-08-21T13:11:09;4.50;;;1.90;;
75554;SDS011;66087;53.126;17.960;2023-08-21T13:13:37;4.90;;;1.80;;
75554;SDS011;66087;53.126;17.960;2023-08-21T13:16:04;4.70;;;2.10;;
75554;SDS011;66087;53.126;17.960;2023-08-21T13:18:30;5.50;;;2.30;;
75554;SDS011;66087;53.126;17.960;2023-08-21T13:20:58;4.90;;;2.30;;
75554;SDS011;66087;53.126;17.960;2023-08-21T13:23:25;6.40;;;2.30;;
75554;SDS011;66087;53.126;17.960;2023-08-21T13:25:55;5.70;;;2.50;;
75554;SDS011;66087;53.126;17.960;2023-08-21T13:50:49;7.70;;;3.00;;
75554;SDS011;66087;53.126;17.960;2023-08-21T14:27:07;6.60;;;3.20;;
75554;SDS011;66087;53.126;17.960;2023-08-21T14:29:34;3.60;;;2.20;;
75554;SDS011;66087;53.126;17.960;2023-08-21T14:32:02;4.50;;;2.00;;
75554;SDS011;66087;53.126;17.960;2023-08-21T14:34:29;4.40;;;2.50;;
75554;SDS011;66087;53.126;17.960;2023-08-21T14:36:57;4.50;;;2.10;;
75554;SDS011;66087;53.126;17.960;2023-08-21T14:39:24;3.80;;;2.20;;
75554;SDS011;66087;53.126;17.960;2023-08-21T14:41:55;5.20;;;2.10;;
75554;SDS011;66087;53.126;17.960;2023-08-21T14:44:22;6.00;;;2.60;;
75554;SDS011;66087;53.126;17.960;2023-08-21T14:47:09;4.20;;;2.30;;
75554;SDS011;66087;53.126;17.960;2023-08-21T15:05:47;4.50;;;2.20;;
75554;SDS011;66087;53.126;17.960;2023-08-21T16:10:38;5.10;;;2.70;;
75554;SDS011;66087;53.126;17.960;2023-08-21T16:13:05;5.20;;;2.50;;
75554;SDS011;66087;53.126;17.960;2023-08-21T16:15:32;6.00;;;3.10;;
75554;SDS011;66087;53.126;17.960;2023-08-21T16:17:59;7.40;;;2.60;;
75554;SDS011;66087;53.126;17.960;2023-08-21T16:23:41;8.10;;;3.20;;
75554;SDS011;66087;53.126;17.960;2023-08-21T16:26:09;5.00;;;2.60;;
75554;SDS011;66087;53.126;17.960;2023-08-21T16:28:36;4.20;;;2.10;;
75554;SDS011;66087;53.126;17.960;2023-08-21T16:31:03;7.00;;;3.00;;
75554;SDS011;66087;53.126;17.960;2023-08-21T16:33:30;6.70;;;2.80;;
75554;SDS011;66087;53.126;17.960;2023-08-21T16:35:57;5.20;;;3.00;;
75554;SDS011;66087;53.126;17.960;2023-08-21T16:38:24;5.20;;;2.80;;
75554;SDS011;66087;53.126;17.960;2023-08-21T16:40:50;7.60;;;3.40;;
75554;SDS011;66087;53.126;17.960;2023-08-21T16:43:17;5.00;;;2.10;;
75554;SDS011;66087;53.126;17.960;2023-08-21T16:45:44;4.00;;;2.30;;
75554;SDS011;66087;53.126;17.960;2023-08-21T16:48:12;4.80;;;2.80;;
75554;SDS011;66087;53.126;17.960;2023-08-21T16:50:39;5.10;;;2.40;;
75554;SDS011;66087;53.126;17.960;2023-08-21T16:53:06;4.70;;;2.30;;
75554;SDS011;66087;53.126;17.960;2023-08-21T16:55:35;4.50;;;2.50;;
75554;SDS011;66087;53.126;17.960;2023-08-21T16:58:01;3.80;;;2.40;;
75554;SDS011;66087;53.126;17.960;2023-08-21T17:00:28;6.00;;;2.80;;
75554;SDS011;66087;53.126;17.960;2023-08-21T17:02:56;4.80;;;2.30;;
75554;SDS011;66087;53.126;17.960;2023-08-21T17:05:42;3.90;;;2.10;;
75554;SDS011;66087;53.126;17.960;2023-08-21T17:08:09;5.30;;;2.30;;
75554;SDS011;66087;53.126;17.960;2023-08-21T17:10:36;6.50;;;2.50;;